• Join FlightAware (Why Join?)
  • Login
  • US Flag 
05:00AM EDT


 

Airport Tracker/Info


-or-


 

Live Flight TrackerFlight Track Log ✈ N762NC ✈ 15-Aug-2013 ✈ KATL - KSAV

Flight Track Log - Related Links

Times and Time Zones

All times are in EDT time to prevent confusion due to time zone crossing. See the N762NC flight status page for this flight to view local times or setup timezone preferences in your user account.

Time Position Orientation Groundspeed Altitude Reporting Facility
EDT Latitude Longitude Course Direction KTS MPH feet Rate Location/Type
08:29AM 33.6333 -84.4000 128° Southeast 163 188 2,500  Level Atlanta TRACON
08:30AM 33.6000 -84.3167 116° Southeast 252 290 4,600 2,340 Climbing Atlanta TRACON
08:31AM 33.5500 -84.2667 140° Southeast 280 322 7,200 1,740 Climbing Atlanta TRACON
08:32AM 33.3412 -84.2990 160° South  Level FlightAware Approximate
08:33AM 33.2355 -84.2614 163° South  Level FlightAware Approximate
08:33AM 33.3869 -84.2378 172° South 323 372 10,000  Level Atlanta Center
08:34AM 33.1352 -84.2249 163° South  Level FlightAware Approximate
08:34AM 33.2847 -84.2178 171° South 358 412 12,300  Level Atlanta Center
08:35AM 33.0461 -84.1690 128° Southeast  Level FlightAware Approximate
08:35AM 33.1825 -84.2003 172° South 377 434 15,500  Level Atlanta Center
08:36AM 33.0803 -84.1800 171° South 377 434 17,900 1,920 Climbing Atlanta Center
08:37AM 32.9906 -84.1578 168° South 371 427 19,400 1,560 Climbing Atlanta Center
08:38AM 32.9092 -84.0711 138° Southeast 366 421 21,100 1,560 Climbing Atlanta Center
08:39AM 32.8592 -83.9497 116° Southeast 372 428 22,600 900 Climbing Atlanta Center
08:40AM 32.8108 -83.8289 115° Southeast 394 453 23,000 180 Climbing Atlanta Center
08:41AM 32.7439 -83.7203 126° Southeast 399 459 23,000  Level Atlanta Center
08:42AM 32.6767 -83.5994 123° Southeast 413 475 23,000  Level Atlanta Center
08:43AM 32.6469 -83.4492 103° East 431 496 23,000 -60 Level Atlanta Center
08:44AM 32.5897 -83.3092 116° Southeast 455 524 22,900 -60 Descending Atlanta Center
08:46AM 32.4733 -83.0231 116° Southeast 485 558 22,900  Level Jacksonville Center
08:47AM 32.4067 -82.8875 120° Southeast 475 547 23,000  Climbing Jacksonville Center
08:48AM 32.3439 -82.7597 120° Southeast 461 531 23,000 -360 Level Jacksonville Center
08:49AM 32.2789 -82.6394 123° Southeast 451 519 22,300 -1,800 Descending Jacksonville Center
08:50AM 32.2472 -82.5019 105° East 421 484 19,400 -3,060 Descending Jacksonville Center
08:51AM 32.2364 -82.3644 95° East 421 484 16,200 -3,300 Descending Jacksonville Center
08:52AM 32.2233 -82.2222 96° East 409 471 12,900 -2,400 Descending Jacksonville Center
08:53AM 32.2183 -82.0944 93° East 402 463 11,500 -960 Descending Jacksonville Center
08:54AM 32.2239 -81.9986 86° East 360 414 11,000 -900 Descending Jacksonville Center
08:55AM 32.2272 -81.8956 88° East 311 358 9,800 -1,200 Descending Jacksonville Center
08:56AM 32.2264 -81.7875 90° East 305 351 8,700 -1,440 Descending Jacksonville Center
08:57AM 32.1964 -81.6969 111° Southeast 294 338 7,000 -1,680 Descending Jacksonville Center
08:58AM 32.1706 -81.6064 109° East 294 338 5,400 -1,620 Descending Jacksonville Center
08:59AM 32.1467 -81.5258 109° East 271 312 3,800 -1,260 Descending Jacksonville Center
09:00AM 32.1292 -81.4575 107° East 238 274 2,900 -720 Descending Jacksonville Center
09:01AM 32.1306 -81.4011 88° East 194 223 2,400 -540 Descending Jacksonville Center
09:02AM 32.1297 -81.3372 91° East 189 217 1,900 -540 Descending Jacksonville Center